^^
No Wait Weather (KNEBELLE1) Station Historical Data
Daily Summary for May 28, 2019 Units:  English    Metric   Both
Daily Weekly Monthly Yearly Custom
  High: Low: Average:
Temperature: 65.2 °F 53.8 °F 59 °F
Dew Point: 59.93 °F 52.5 °F 56.3 °F
Humidity: 98% 79% 91%
Wind Speed: 9mph 0mph 1.3mph
Wind Gust: 15mph - -
Wind- - ENE
Pressure: 29.61 in 29.44 in -
Precipitation: 1.15 in    
Historical Graphs
 
 
Tabular Data for May 28, 2019
Time Temperature Dew Point Pressure Wind Wind Speed Wind Gust Humidity Rainfall Rate (Hourly) solar
00:04 61.8 °F 55.9 °F 29.55 in East 1 mph 3 mph 81% 0 in WeatherCatV3.04B91 W/m2
00:09 61.8 °F 55.9 °F 29.55 in Calm   3 mph 81% 0 in WeatherCatV3.04B91 W/m2
00:14 61.6 °F 55.71 °F 29.55 in Calm   2 mph 81% 0 in WeatherCatV3.04B91 W/m2
00:19 61.5 °F 55.61 °F 29.55 in Calm     81% 0 in WeatherCatV3.04B91 W/m2
00:24 61.3 °F 55.75 °F 29.55 in NE 2 mph 8 mph 82% 0 in WeatherCatV3.04B91 W/m2
00:29 61.2 °F 55.66 °F 29.55 in Calm   3 mph 82% 0 in WeatherCatV3.04B91 W/m2
00:34 61 °F 55.46 °F 29.55 in Calm   2 mph 82% 0 in WeatherCatV3.04B91 W/m2
00:39 61 °F 55.46 °F 29.55 in NE 3 mph 9 mph 82% 0 in WeatherCatV3.04B91 W/m2
00:44 61 °F 55.46 °F 29.54 in Calm   3 mph 82% 0 in WeatherCatV3.04B91 W/m2
00:49 60.9 °F 55.7 °F 29.54 in Calm   4 mph 83% 0 in WeatherCatV3.04B91 W/m2
00:54 60.7 °F 55.5 °F 29.54 in Calm   2 mph 83% 0 in WeatherCatV3.04B91 W/m2
00:59 60.5 °F 55.31 °F 29.54 in NE 5 mph 9 mph 83% 0 in WeatherCatV3.04B91 W/m2
01:04 60.4 °F 55.21 °F 29.54 in Calm     83% 0 in WeatherCatV3.04B91 W/m2
01:09 60.2 °F 55.01 °F 29.54 in NE 2 mph 3 mph 83% 0 in WeatherCatV3.04B91 W/m2
01:14 60.1 °F 54.92 °F 29.52 in Calm   13 mph 83% 0 in WeatherCatV3.04B91 W/m2
01:19 59.8 °F 54.62 °F 29.52 in Calm   3 mph 83% 0 in WeatherCatV3.04B91 W/m2
01:24 59.6 °F 54.76 °F 29.52 in Calm   4 mph 84% 0 in WeatherCatV3.04B91 W/m2
01:29 59.6 °F 54.76 °F 29.57 in Calm     84% 0 in WeatherCatV3.04B91 W/m2
01:34 59.5 °F 54.66 °F 29.57 in Calm   1 mph 84% 0 in WeatherCatV3.04B91 W/m2
01:39 59.5 °F 54.98 °F 29.57 in ENE 2 mph 4 mph 85% 0 in WeatherCatV3.04B91 W/m2
01:44 59.3 °F 55.11 °F 29.61 in Calm   2 mph 86% 0 in WeatherCatV3.04B91 W/m2
01:49 59.2 °F 55.33 °F 29.61 in ENE 3 mph 10 mph 87% 1.33 in WeatherCatV3.04B91 W/m2
01:54 58.1 °F 54.56 °F 29.61 in NE 4 mph 6 mph 88% 0.37 in WeatherCatV3.04B91 W/m2
01:59 57.5 °F 54.59 °F 29.54 in Calm   9 mph 90% 0.13 in WeatherCatV3.04B91 W/m2
02:04 57.3 °F 54.69 °F 29.54 in Calm   1 mph 91% 0.06 in WeatherCatV3.04B91 W/m2
02:09 57.2 °F 54.89 °F 29.54 in Calm   8 mph 92% 0.04 in WeatherCatV3.04B91 W/m2
02:14 57 °F 54.7 °F 29.52 in ENE 7 mph 7 mph 92% 0 in WeatherCatV3.04B91 W/m2
02:19 56.9 °F 54.89 °F 29.52 in Calm     93% 0 in WeatherCatV3.04B91 W/m2
02:24 56.9 °F 54.89 °F 29.52 in Calm   2 mph 93% 0 in WeatherCatV3.04B91 W/m2
02:29 56.7 °F 54.99 °F 29.53 in Calm   6 mph 94% 0 in WeatherCatV3.04B91 W/m2
02:34 56.7 °F 54.99 °F 29.53 in NE 3 mph 10 mph 94% 0 in WeatherCatV3.04B91 W/m2
02:39 56.7 °F 54.99 °F 29.53 in Calm   4 mph 94% 0 in WeatherCatV3.04B91 W/m2
02:44 56.6 °F 55.18 °F 29.52 in East 9 mph 9 mph 95% 0 in WeatherCatV3.04B91 W/m2
02:49 56.6 °F 55.18 °F 29.52 in ENE 2 mph 2 mph 95% 0 in WeatherCatV3.04B91 W/m2
02:54 56.5 °F 55.08 °F 29.52 in NE 2 mph 3 mph 95% 0 in WeatherCatV3.04B91 W/m2
02:59 56.5 °F 55.08 °F 29.53 in Calm     95% 0 in WeatherCatV3.04B91 W/m2
03:04 56.5 °F 55.08 °F 29.53 in Calm   3 mph 95% 0 in WeatherCatV3.04B91 W/m2
03:09 56.5 °F 55.08 °F 29.53 in East 2 mph 7 mph 95% 0 in WeatherCatV3.04B91 W/m2
03:14 56.5 °F 55.08 °F 29.52 in NE 2 mph 5 mph 95% 0 in WeatherCatV3.04B91 W/m2
03:19 56.5 °F 55.37 °F 29.52 in Calm   2 mph 96% 0 in WeatherCatV3.04B91 W/m2
03:24 56.5 °F 55.37 °F 29.52 in Calm   5 mph 96% 0 in WeatherCatV3.04B91 W/m2
03:29 56.5 °F 55.37 °F 29.50 in Calm     96% 0 in WeatherCatV3.04B91 W/m2
03:34 56.5 °F 55.37 °F 29.50 in Calm   3 mph 96% 0 in WeatherCatV3.04B91 W/m2
03:39 56.5 °F 55.37 °F 29.50 in Calm   5 mph 96% 0 in WeatherCatV3.04B91 W/m2
03:44 56.5 °F 55.37 °F 29.49 in Calm     96% 0 in WeatherCatV3.04B91 W/m2
03:49 56.5 °F 55.37 °F 29.49 in Calm   3 mph 96% 0 in WeatherCatV3.04B91 W/m2
03:54 56.3 °F 55.17 °F 29.49 in ENE 2 mph 10 mph 96% 0 in WeatherCatV3.04B91 W/m2
03:59 56.2 °F 55.07 °F 29.48 in ENE 1 mph 4 mph 96% 0 in WeatherCatV3.04B91 W/m2
04:04 56 °F 54.87 °F 29.48 in Calm   2 mph 96% 0 in WeatherCatV3.04B91 W/m2
04:09 56 °F 54.87 °F 29.48 in NE 3 mph 3 mph 96% 0 in WeatherCatV3.04B91 W/m2
04:14 55.9 °F 54.77 °F 29.46 in NW 1 mph 1 mph 96% 0 in WeatherCatV3.04B91 W/m2
04:19 55.7 °F 54.58 °F 29.46 in North 1 mph 7 mph 96% 0 in WeatherCatV3.04B91 W/m2
04:24 55.6 °F 54.48 °F 29.46 in Calm   5 mph 96% 0 in WeatherCatV3.04B91 W/m2
04:29 55.7 °F 54.58 °F 29.59 in Calm   5 mph 96% 0 in WeatherCatV3.04B91 W/m2
04:34 56.2 °F 55.07 °F 29.59 in North 9 mph 9 mph 96% 0 in WeatherCatV3.04B91 W/m2
04:39 56.3 °F 54.88 °F 29.59 in ENE 3 mph 3 mph 95% 0.69 in WeatherCatV3.04B91 W/m2
04:44 56.5 °F 55.08 °F 29.54 in Calm   1 mph 95% 0.1 in WeatherCatV3.04B91 W/m2
04:49 56.3 °F 54.59 °F 29.54 in NNE 4 mph 12 mph 94% 0.05 in WeatherCatV3.04B91 W/m2
04:54 55.3 °F 53.6 °F 29.54 in North 3 mph 13 mph 94% 0.04 in WeatherCatV3.04B91 W/m2
04:59 54.8 °F 53.1 °F 29.54 in NE 2 mph 5 mph 94% 0.96 in WeatherCatV3.04B91 W/m2
05:04 54.2 °F 52.51 °F 29.54 in NNE 4 mph 7 mph 94% 0.75 in WeatherCatV3.04B91 W/m2
05:09 53.9 °F 52.5 °F 29.54 in ENE 7 mph 15 mph 95% 0.55 in WeatherCatV3.04B91 W/m2
05:14 53.9 °F 52.5 °F 29.54 in North 9 mph 9 mph 95% 1.34 in WeatherCatV3.04B91 W/m2
05:19 53.9 °F 52.78 °F 29.54 in Calm   4 mph 96% 2.89 in WeatherCatV3.04B91 W/m2
05:24 53.9 °F 52.78 °F 29.54 in NE 3 mph 7 mph 96% 1.69 in WeatherCatV3.04B91 W/m2
05:29 53.9 °F 52.78 °F 29.54 in East 9 mph 9 mph 96% 1.26 in WeatherCatV3.04B91 W/m2
05:34 53.9 °F 52.78 °F 29.54 in East 2 mph 7 mph 96% 0.41 in WeatherCatV3.04B91 W/m2
05:39 54.1 °F 53.27 °F 29.54 in NE 2 mph 10 mph 97% 0.55 in WeatherCatV3.04B91 W/m2
05:44 54.1 °F 53.27 °F 29.52 in NE 4 mph 6 mph 97% 0.39 in WeatherCatV3.04B91 W/m2
05:49 54.1 °F 53.27 °F 29.52 in NE 4 mph 6 mph 97% 0.16 in WeatherCatV3.04B91 W/m2
05:54 54.1 °F 53.27 °F 29.52 in ENE 6 mph 6 mph 97% 0.08 in WeatherCatV3.04B91 W/m2
05:59 54.1 °F 53.27 °F 29.51 in ENE 3 mph 10 mph 97% 0.06 in WeatherCatV3.04B91 W/m2
06:04 54.1 °F 53.27 °F 29.51 in NE 5 mph 10 mph 97% 0.06 in WeatherCatV3.04B91 W/m2
06:09 53.9 °F 53.07 °F 29.51 in ENE 7 mph 13 mph 97% 0.06 in WeatherCatV3.04B91 W/m2
06:14 53.8 °F 52.97 °F 29.49 in NE 5 mph 6 mph 97% 0.06 in WeatherCatV3.04B91 W/m2
06:19 53.8 °F 52.97 °F 29.49 in NE 5 mph 7 mph 97% 0.05 in WeatherCatV3.04B91 W/m2
06:24 53.8 °F 52.97 °F 29.49 in Calm   1 mph 97% 0.04 in WeatherCatV3.04B91 W/m2
06:29 53.9 °F 53.07 °F 29.52 in Calm   1 mph 97% 0.1 in WeatherCatV3.04B91 W/m2
06:34 53.9 °F 53.07 °F 29.52 in Calm     97% 0.16 in WeatherCatV3.04B91 W/m2
06:39 53.9 °F 53.07 °F 29.52 in NE 4 mph 6 mph 97% 0.41 in WeatherCatV3.04B91 W/m2
06:44 53.9 °F 53.07 °F 29.54 in NNE 2 mph 5 mph 97% 0.24 in WeatherCatV3.04B91 W/m2
06:49 53.9 °F 53.07 °F 29.54 in ENE 1 mph 3 mph 97% 0.2 in WeatherCatV3.04B91 W/m2
06:54 54.1 °F 53.27 °F 29.54 in Calm     97% 0.08 in WeatherCatV3.04B91 W/m2
06:59 54.1 °F 53.27 °F 29.55 in East 9 mph 9 mph 97% 0.05 in WeatherCatV3.04B91 W/m2
07:04 54.1 °F 53.27 °F 29.55 in Calm   4 mph 97% 0.04 in WeatherCatV3.04B91 W/m2
07:09 54.2 °F 53.37 °F 29.55 in Calm   4 mph 97% 0.04 in WeatherCatV3.04B91 W/m2
07:14 54.2 °F 53.37 °F 29.53 in NE 6 mph 6 mph 97% 0.04 in WeatherCatV3.04B91 W/m2
07:19 54.4 °F 53.56 °F 29.53 in Calm   1 mph 97% 0.04 in WeatherCatV3.04B91 W/m2
07:24 54.4 °F 53.85 °F 29.53 in Calm   1 mph 98% 0 in WeatherCatV3.04B91 W/m2
07:29 54.5 °F 53.95 °F 29.59 in Calm     98% 0 in WeatherCatV3.04B91 W/m2
07:34 54.5 °F 53.95 °F 29.59 in Calm   1 mph 98% 0 in WeatherCatV3.04B91 W/m2
07:39 54.5 °F 53.95 °F 29.59 in ENE 2 mph 8 mph 98% 0 in WeatherCatV3.04B91 W/m2
07:44 54.7 °F 54.14 °F 29.56 in NNE 6 mph 10 mph 98% 0 in WeatherCatV3.04B91 W/m2
07:49 54.7 °F 54.14 °F 29.56 in NE 5 mph 11 mph 98% 0 in WeatherCatV3.04B91 W/m2
07:54 54.7 °F 54.14 °F 29.56 in ENE 4 mph 11 mph 98% 0 in WeatherCatV3.04B91 W/m2
07:59 54.7 °F 54.14 °F 29.53 in ENE 6 mph 9 mph 98% 0 in WeatherCatV3.04B91 W/m2
08:04 54.7 °F 54.14 °F 29.53 in ESE 3 mph 6 mph 98% 0 in WeatherCatV3.04B91 W/m2
08:09 54.7 °F 54.14 °F 29.53 in Calm     98% 0 in WeatherCatV3.04B91 W/m2
08:14 54.7 °F 54.14 °F 29.57 in Calm     98% 0 in WeatherCatV3.04B91 W/m2
08:19 54.7 °F 54.14 °F 29.57 in ENE 7 mph 7 mph 98% 0 in WeatherCatV3.04B91 W/m2
08:24 54.5 °F 53.95 °F 29.57 in Calm     98% 0 in WeatherCatV3.04B91 W/m2
08:29 54.5 °F 53.95 °F 29.55 in NNE 7 mph 7 mph 98% 0 in WeatherCatV3.04B91 W/m2
08:34 54.5 °F 53.95 °F 29.55 in Calm   1 mph 98% 0 in WeatherCatV3.04B91 W/m2
08:39 54.5 °F 53.95 °F 29.55 in Calm   9 mph 98% 0 in WeatherCatV3.04B91 W/m2
08:44 54.5 °F 53.95 °F 29.54 in Calm   4 mph 98% 0 in WeatherCatV3.04B91 W/m2
08:49 54.5 °F 53.95 °F 29.54 in Calm   8 mph 98% 0 in WeatherCatV3.04B91 W/m2
08:54 54.7 °F 54.14 °F 29.54 in Calm   4 mph 98% 0 in WeatherCatV3.04B91 W/m2
08:59 55.1 °F 54.54 °F 29.53 in NNE 3 mph 11 mph 98% 0 in WeatherCatV3.04B91 W/m2
09:04 55.4 °F 54.84 °F 29.53 in Calm   2 mph 98% 0 in WeatherCatV3.04B91 W/m2
09:09 55.7 °F 55.14 °F 29.53 in Calm   1 mph 98% 0 in WeatherCatV3.04B91 W/m2
09:14 55.9 °F 55.34 °F 29.53 in Calm   2 mph 98% 0 in WeatherCatV3.04B91 W/m2
09:19 56 °F 55.44 °F 29.53 in Calm   1 mph 98% 0 in WeatherCatV3.04B91 W/m2
09:24 56.3 °F 55.74 °F 29.53 in Calm   1 mph 98% 0 in WeatherCatV3.04B91 W/m2
09:29 56.6 °F 56.04 °F 29.52 in Calm     98% 0 in WeatherCatV3.04B91 W/m2
09:34 57 °F 56.44 °F 29.52 in Calm     98% 0 in WeatherCatV3.04B91 W/m2
09:39 57.3 °F 56.74 °F 29.52 in Calm     98% 0 in WeatherCatV3.04B91 W/m2
09:44 57.6 °F 57.04 °F 29.52 in SE 1 mph 2 mph 98% 0 in WeatherCatV3.04B91 W/m2
09:49 58 °F 57.44 °F 29.52 in ENE 4 mph 7 mph 98% 0 in WeatherCatV3.04B91 W/m2
09:54 58.1 °F 57.25 °F 29.52 in NNE 1 mph 5 mph 97% 0 in WeatherCatV3.04B91 W/m2
09:59 58.3 °F 57.45 °F 29.52 in Calm   1 mph 97% 0 in WeatherCatV3.04B91 W/m2
10:04 58.6 °F 57.75 °F 29.52 in Calm   1 mph 97% 0 in WeatherCatV3.04B91 W/m2
10:09 58.4 °F 57.26 °F 29.52 in Calm   6 mph 96% 0 in WeatherCatV3.04B91 W/m2
10:14 58.7 °F 57.56 °F 29.53 in NE 2 mph 6 mph 96% 0 in WeatherCatV3.04B91 W/m2
10:19 59.2 °F 58.06 °F 29.53 in NE 1 mph 3 mph 96% 0 in WeatherCatV3.04B91 W/m2
10:24 59.5 °F 58.36 °F 29.53 in Calm   1 mph 96% 0 in WeatherCatV3.04B91 W/m2
10:29 60.2 °F 59.05 °F 29.52 in Calm   1 mph 96% 0 in WeatherCatV3.04B91 W/m2
10:34 60.9 °F 59.46 °F 29.52 in Calm     95% 0 in WeatherCatV3.04B91 W/m2
10:39 61.2 °F 59.46 °F 29.52 in Calm   6 mph 94% 0 in WeatherCatV3.04B91 W/m2
10:44 61.5 °F 59.75 °F 29.51 in Calm     94% 0 in WeatherCatV3.04B91 W/m2
10:49 61.6 °F 59.25 °F 29.51 in Calm   1 mph 92% 0 in WeatherCatV3.04B91 W/m2
10:54 62 °F 59.65 °F 29.51 in Calm     92% 0 in WeatherCatV3.04B91 W/m2
10:59 62.6 °F 59.93 °F 29.50 in ENE 1 mph 5 mph 91% 0 in WeatherCatV3.04B91 W/m2
11:04 62.9 °F 59.6 °F 29.50 in Calm   5 mph 89% 0 in WeatherCatV3.04B91 W/m2
11:09 63.1 °F 59.48 °F 29.50 in ENE 1 mph 1 mph 88% 0 in WeatherCatV3.04B91 W/m2
11:14 63.2 °F 58.94 °F 29.50 in Calm   6 mph 86% 0 in WeatherCatV3.04B91 W/m2
11:19 63.7 °F 59.43 °F 29.50 in NE 1 mph 2 mph 86% 0 in WeatherCatV3.04B91 W/m2
11:24 64 °F 59.39 °F 29.50 in NNE 1 mph 1 mph 85% 0 in WeatherCatV3.04B91 W/m2
11:29 64.3 °F 59.36 °F 29.50 in Calm   1 mph 84% 0 in WeatherCatV3.04B91 W/m2
11:34 64.5 °F 59.22 °F 29.50 in NE 1 mph 2 mph 83% 0 in WeatherCatV3.04B91 W/m2
11:39 64.3 °F 58.68 °F 29.50 in Calm   6 mph 82% 0 in WeatherCatV3.04B91 W/m2
11:44 64.3 °F 58.34 °F 29.53 in Calm   1 mph 81% 0 in WeatherCatV3.04B91 W/m2
11:49 65 °F 59.02 °F 29.53 in Calm   1 mph 81% 0 in WeatherCatV3.04B91 W/m2
11:54 65 °F 58.67 °F 29.53 in Calm     80% 0 in WeatherCatV3.04B91 W/m2
11:59 65.2 °F 58.87 °F 29.50 in NE 1 mph 1 mph 80% 0 in WeatherCatV3.04B91 W/m2
12:04 65 °F 58.32 °F 29.50 in NE 1 mph 4 mph 79% 0 in WeatherCatV3.04B91 W/m2
12:09 64.7 °F 58.38 °F 29.50 in Calm   3 mph 80% 0 in WeatherCatV3.04B91 W/m2
12:14 64.7 °F 58.38 °F 29.52 in Calm   1 mph 80% 0 in WeatherCatV3.04B91 W/m2
12:19 64.5 °F 58.19 °F 29.52 in Calm   6 mph 80% 0 in WeatherCatV3.04B91 W/m2
12:24 64.3 °F 58.34 °F 29.52 in Calm   1 mph 81% 0 in WeatherCatV3.04B91 W/m2
12:29 64 °F 58.05 °F 29.50 in ENE 1 mph 5 mph 81% 0 in WeatherCatV3.04B91 W/m2
12:34 63.9 °F 57.95 °F 29.50 in Calm   2 mph 81% 0 in WeatherCatV3.04B91 W/m2
12:39 63.5 °F 57.9 °F 29.50 in Calm   1 mph 82% 0 in WeatherCatV3.04B91 W/m2
12:44 63.5 °F 57.9 °F 29.56 in Calm     82% 0 in WeatherCatV3.04B91 W/m2
12:49 63.7 °F 58.43 °F 29.56 in Calm     83% 0 in WeatherCatV3.04B91 W/m2
12:54 63.4 °F 58.14 °F 29.56 in Calm   1 mph 83% 0 in WeatherCatV3.04B91 W/m2
12:59 63.1 °F 58.18 °F 29.48 in NE 4 mph 5 mph 84% 0 in WeatherCatV3.04B91 W/m2
13:04 62.7 °F 58.12 °F 29.48 in Calm     85% 0 in WeatherCatV3.04B91 W/m2
13:09 62.7 °F 58.12 °F 29.48 in Calm   1 mph 85% 0 in WeatherCatV3.04B91 W/m2
13:14 62.4 °F 58.15 °F 29.53 in Calm   1 mph 86% 0 in WeatherCatV3.04B91 W/m2
13:19 62.3 °F 58.05 °F 29.53 in Calm     86% 0 in WeatherCatV3.04B91 W/m2
13:24 62.3 °F 58.38 °F 29.53 in Calm     87% 0 in WeatherCatV3.04B91 W/m2
13:29 62.1 °F 58.18 °F 29.57 in Calm     87% 0 in WeatherCatV3.04B91 W/m2
13:34 62.1 °F 58.18 °F 29.57 in Calm   1 mph 87% 0 in WeatherCatV3.04B91 W/m2
13:39 61.8 °F 58.2 °F 29.57 in NE 1 mph 11 mph 88% 0 in WeatherCatV3.04B91 W/m2
13:44 61.3 °F 58.03 °F 29.44 in Calm   2 mph 89% 0 in WeatherCatV3.04B91 W/m2
13:49 61.3 °F 58.03 °F 29.44 in Calm   10 mph 89% 0 in WeatherCatV3.04B91 W/m2
13:54 61.2 °F 58.24 °F 29.44 in Calm   1 mph 90% 0 in WeatherCatV3.04B91 W/m2
13:59 61.2 °F 58.24 °F 29.47 in NE 2 mph 9 mph 90% 0 in WeatherCatV3.04B91 W/m2
14:04 61.3 °F 58.65 °F 29.47 in NE 1 mph 1 mph 91% 0 in WeatherCatV3.04B91 W/m2
14:09 61.5 °F 58.84 °F 29.47 in Calm   9 mph 91% 0 in WeatherCatV3.04B91 W/m2
14:14 61.6 °F 58.63 °F 29.46 in ENE 4 mph 9 mph 90% 0 in WeatherCatV3.04B91 W/m2
14:19 61.5 °F 58.54 °F 29.46 in North 1 mph 10 mph 90% 0 in WeatherCatV3.04B91 W/m2
14:24 61.6 °F 58.63 °F 29.46 in NNE 1 mph 8 mph 90% 0 in WeatherCatV3.04B91 W/m2
14:29 61.6 °F 58.63 °F 29.46 in Calm   5 mph 90% 0 in WeatherCatV3.04B91 W/m2
14:34 62 °F 59.03 °F 29.46 in ENE 6 mph 7 mph 90% 0 in WeatherCatV3.04B91 W/m2
14:39 61.8 °F 58.52 °F 29.46 in ENE 2 mph 2 mph 89% 0 in WeatherCatV3.04B91 W/m2
14:44 62 °F 58.72 °F 29.47 in ENE 1 mph 2 mph 89% 0 in WeatherCatV3.04B91 W/m2
14:49 62 °F 58.72 °F 29.47 in ENE 2 mph 8 mph 89% 0 in WeatherCatV3.04B91 W/m2
14:54 62 °F 58.4 °F 29.47 in Calm   10 mph 88% 0 in WeatherCatV3.04B91 W/m2
14:59 62 °F 58.4 °F 29.47 in NE 3 mph 11 mph 88% 0 in WeatherCatV3.04B91 W/m2
15:04 62 °F 58.4 °F 29.47 in Calm   2 mph 88% 0 in WeatherCatV3.04B91 W/m2
15:09 62.3 °F 58.7 °F 29.47 in East 1 mph 5 mph 88% 0 in WeatherCatV3.04B91 W/m2
15:14 62.3 °F 58.38 °F 29.46 in NE 1 mph 5 mph 87% 0 in WeatherCatV3.04B91 W/m2
15:19 62.4 °F 58.47 °F 29.46 in Calm   7 mph 87% 0 in WeatherCatV3.04B91 W/m2
15:24 62.7 °F 58.77 °F 29.46 in Calm   2 mph 87% 0 in WeatherCatV3.04B91 W/m2
15:29 63.1 °F 58.84 °F 29.47 in ENE 1 mph 2 mph 86% 0 in WeatherCatV3.04B91 W/m2
15:34 63.2 °F 58.94 °F 29.47 in Calm   1 mph 86% 0 in WeatherCatV3.04B91 W/m2
15:39 62.7 °F 58.12 °F 29.47 in Calm   2 mph 85% 0 in WeatherCatV3.04B91 W/m2
15:44 62.4 °F 58.15 °F 29.47 in NNE 1 mph 2 mph 86% 0 in WeatherCatV3.04B91 W/m2
15:49 62.1 °F 57.86 °F 29.47 in North 2 mph 2 mph 86% 0 in WeatherCatV3.04B91 W/m2
15:54 61.8 °F 57.56 °F 29.47 in Calm   2 mph 86% 0 in WeatherCatV3.04B91 W/m2
15:59 61.6 °F 57.69 °F 29.48 in ENE 1 mph 1 mph 87% 0 in WeatherCatV3.04B91 W/m2
16:04 61.5 °F 57.59 °F 29.48 in ENE 2 mph 2 mph 87% 0 in WeatherCatV3.04B91 W/m2
16:09 61 °F 57.1 °F 29.48 in Calm   2 mph 87% 0 in WeatherCatV3.04B91 W/m2
16:14 60.9 °F 57 °F 29.48 in Calm   7 mph 87% 0 in WeatherCatV3.04B91 W/m2
16:19 60.7 °F 57.12 °F 29.48 in NNE 1 mph 5 mph 88% 0 in WeatherCatV3.04B91 W/m2
16:24 60.7 °F 57.12 °F 29.48 in Calm   2 mph 88% 0 in WeatherCatV3.04B91 W/m2
16:29 60.7 °F 57.12 °F 29.48 in Calm   7 mph 88% 0 in WeatherCatV3.04B91 W/m2
16:34 60.5 °F 56.92 °F 29.48 in NE 3 mph 6 mph 88% 0 in WeatherCatV3.04B91 W/m2
16:39 60.4 °F 57.14 °F 29.48 in Calm   9 mph 89% 0 in WeatherCatV3.04B91 W/m2
16:44 60.4 °F 57.14 °F 29.48 in ENE 6 mph 6 mph 89% 0 in WeatherCatV3.04B91 W/m2
16:49 60.1 °F 56.84 °F 29.48 in Calm   8 mph 89% 0 in WeatherCatV3.04B91 W/m2
16:54 59.9 °F 56.96 °F 29.48 in ENE 5 mph 11 mph 90% 0 in WeatherCatV3.04B91 W/m2
16:59 59.9 °F 56.96 °F 29.48 in ENE 1 mph 9 mph 90% 0 in WeatherCatV3.04B91 W/m2
17:04 59.9 °F 56.96 °F 29.48 in NE 1 mph 3 mph 90% 0 in WeatherCatV3.04B91 W/m2
17:09 60.1 °F 57.46 °F 29.48 in Calm   2 mph 91% 0 in WeatherCatV3.04B91 W/m2
17:14 60.1 °F 57.46 °F 29.48 in Calm   2 mph 91% 0 in WeatherCatV3.04B91 W/m2
17:19 60.1 °F 57.46 °F 29.48 in NE 6 mph 6 mph 91% 0 in WeatherCatV3.04B91 W/m2
17:24 59.9 °F 56.96 °F 29.48 in ENE 7 mph 7 mph 90% 0 in WeatherCatV3.04B91 W/m2
17:29 59.8 °F 56.86 °F 29.46 in NE 1 mph 11 mph 90% 0 in WeatherCatV3.04B91 W/m2
17:34 59.9 °F 56.96 °F 29.46 in NE 1 mph 2 mph 90% 0 in WeatherCatV3.04B91 W/m2
17:39 59.9 °F 56.96 °F 29.46 in Calm   8 mph 90% 0 in WeatherCatV3.04B91 W/m2
17:44 59.9 °F 56.96 °F 29.45 in NE 2 mph 4 mph 90% 0 in WeatherCatV3.04B91 W/m2
17:49 59.9 °F 56.96 °F 29.45 in NNE 3 mph 7 mph 90% 0 in WeatherCatV3.04B91 W/m2
17:54 59.9 °F 56.96 °F 29.45 in ENE 1 mph 9 mph 90% 0 in WeatherCatV3.04B91 W/m2
17:59 59.9 °F 56.96 °F 29.46 in ENE 1 mph 7 mph 90% 0 in WeatherCatV3.04B91 W/m2
18:04 60.1 °F 57.15 °F 29.46 in ENE 1 mph 4 mph 90% 0 in WeatherCatV3.04B91 W/m2
18:09 60.1 °F 56.84 °F 29.46 in NE 1 mph 5 mph 89% 0 in WeatherCatV3.04B91 W/m2
18:14 60.1 °F 56.84 °F 29.48 in Calm   9 mph 89% 0 in WeatherCatV3.04B91 W/m2
18:19 60.1 °F 56.84 °F 29.48 in Calm   9 mph 89% 0 in WeatherCatV3.04B91 W/m2
18:24 59.9 °F 56.33 °F 29.48 in ENE 7 mph 10 mph 88% 0 in WeatherCatV3.04B91 W/m2
18:29 59.8 °F 56.23 °F 29.47 in Calm   3 mph 88% 0 in WeatherCatV3.04B91 W/m2
18:34 59.8 °F 56.55 °F 29.47 in East 2 mph 7 mph 89% 0 in WeatherCatV3.04B91 W/m2
18:39 59.8 °F 56.23 °F 29.47 in East 2 mph 5 mph 88% 0 in WeatherCatV3.04B91 W/m2
18:44 59.8 °F 56.23 °F 29.47 in ENE 5 mph 9 mph 88% 0 in WeatherCatV3.04B91 W/m2
18:49 59.8 °F 56.23 °F 29.47 in NE 6 mph 7 mph 88% 0 in WeatherCatV3.04B91 W/m2
18:54 59.9 °F 56.33 °F 29.47 in Calm   2 mph 88% 0 in WeatherCatV3.04B91 W/m2
18:59 59.9 °F 56.33 °F 29.49 in NE 1 mph 2 mph 88% 0 in WeatherCatV3.04B91 W/m2
19:04 59.9 °F 56.33 °F 29.49 in NE 7 mph 9 mph 88% 0 in WeatherCatV3.04B91 W/m2
19:09 59.8 °F 56.23 °F 29.49 in Calm   1 mph 88% 0 in WeatherCatV3.04B91 W/m2
19:14 59.8 °F 56.23 °F 29.48 in Calm   2 mph 88% 0 in WeatherCatV3.04B91 W/m2
19:19 59.8 °F 56.23 °F 29.48 in NE 7 mph 7 mph 88% 0 in WeatherCatV3.04B91 W/m2
19:24 59.8 °F 56.23 °F 29.48 in Calm   3 mph 88% 0 in WeatherCatV3.04B91 W/m2
19:29 59.9 °F 56.33 °F 29.49 in NNE 1 mph 4 mph 88% 0 in WeatherCatV3.04B91 W/m2
19:34 59.9 °F 56.33 °F 29.49 in Calm   1 mph 88% 0 in WeatherCatV3.04B91 W/m2
19:39 59.9 °F 56.33 °F 29.49 in NE 2 mph 3 mph 88% 0 in WeatherCatV3.04B91 W/m2
19:44 59.9 °F 56.33 °F 29.50 in Calm   2 mph 88% 0 in WeatherCatV3.04B91 W/m2
19:49 59.9 °F 56.33 °F 29.50 in Calm   2 mph 88% 0 in WeatherCatV3.04B91 W/m2
19:54 59.9 °F 56.33 °F 29.50 in Calm   2 mph 88% 0 in WeatherCatV3.04B91 W/m2
19:59 59.9 °F 56.33 °F 29.49 in Calm     88% 0 in WeatherCatV3.04B91 W/m2
20:04 59.9 °F 56.65 °F 29.49 in Calm   3 mph 89% 0 in WeatherCatV3.04B91 W/m2
20:09 59.8 °F 56.55 °F 29.49 in NE 2 mph 5 mph 89% 0 in WeatherCatV3.04B91 W/m2
20:14 59.8 °F 56.55 °F 29.49 in ENE 1 mph 1 mph 89% 0 in WeatherCatV3.04B91 W/m2
20:19 59.8 °F 56.55 °F 29.49 in NE 1 mph 3 mph 89% 0 in WeatherCatV3.04B91 W/m2
20:24 59.6 °F 56.35 °F 29.49 in Calm   2 mph 89% 0 in WeatherCatV3.04B91 W/m2
20:29 59.6 °F 56.35 °F 29.48 in Calm   1 mph 89% 0 in WeatherCatV3.04B91 W/m2
20:34 59.6 °F 56.35 °F 29.48 in Calm   2 mph 89% 0 in WeatherCatV3.04B91 W/m2
20:39 59.6 °F 56.66 °F 29.48 in NE 1 mph 3 mph 90% 0 in WeatherCatV3.04B91 W/m2
20:44 59.6 °F 56.66 °F 29.46 in Calm   1 mph 90% 0 in WeatherCatV3.04B91 W/m2
20:49 59.6 °F 56.66 °F 29.46 in Calm   1 mph 90% 0 in WeatherCatV3.04B91 W/m2
20:54 59.6 °F 56.66 °F 29.46 in Calm   2 mph 90% 0 in WeatherCatV3.04B91 W/m2
20:59 59.6 °F 56.66 °F 29.48 in NE 1 mph 9 mph 90% 0 in WeatherCatV3.04B91 W/m2
21:04 59.5 °F 56.56 °F 29.48 in Calm   1 mph 90% 0 in WeatherCatV3.04B91 W/m2
21:09 59.5 °F 56.56 °F 29.48 in Calm   2 mph 90% 0 in WeatherCatV3.04B91 W/m2
21:14 59.5 °F 56.56 °F 29.50 in NE 1 mph 3 mph 90% 0 in WeatherCatV3.04B91 W/m2
21:19 59.5 °F 56.56 °F 29.50 in Calm   2 mph 90% 0 in WeatherCatV3.04B91 W/m2
21:24 59.5 °F 56.56 °F 29.50 in Calm   3 mph 90% 0 in WeatherCatV3.04B91 W/m2
21:29 59.3 °F 56.36 °F 29.46 in East 6 mph 7 mph 90% 0 in WeatherCatV3.04B91 W/m2
21:34 59.3 °F 56.67 °F 29.46 in NNE 1 mph 2 mph 91% 0 in WeatherCatV3.04B91 W/m2
21:39 59.3 °F 56.67 °F 29.46 in East 1 mph 2 mph 91% 0 in WeatherCatV3.04B91 W/m2
21:44 59.3 °F 56.67 °F 29.49 in NE 1 mph 3 mph 91% 0 in WeatherCatV3.04B91 W/m2
21:49 59.3 °F 56.67 °F 29.49 in Calm   1 mph 91% 0 in WeatherCatV3.04B91 W/m2
21:54 59.3 °F 56.67 °F 29.49 in Calm     91% 0 in WeatherCatV3.04B91 W/m2
21:59 59.3 °F 56.67 °F 29.49 in East 1 mph 6 mph 91% 0 in WeatherCatV3.04B91 W/m2
22:04 59.2 °F 56.57 °F 29.49 in East 1 mph 4 mph 91% 0 in WeatherCatV3.04B91 W/m2
22:09 59.2 °F 56.87 °F 29.49 in Calm   1 mph 92% 0 in WeatherCatV3.04B91 W/m2
22:14 59.2 °F 56.87 °F 29.49 in Calm     92% 0 in WeatherCatV3.04B91 W/m2
22:19 59.2 °F 56.87 °F 29.49 in Calm     92% 0 in WeatherCatV3.04B91 W/m2
22:24 58.9 °F 56.58 °F 29.49 in Calm   5 mph 92% 0.04 in WeatherCatV3.04B91 W/m2
22:29 58.9 °F 56.88 °F 29.49 in Calm     93% 0.04 in WeatherCatV3.04B91 W/m2
22:34 58.7 °F 56.68 °F 29.49 in Calm     93% 0.04 in WeatherCatV3.04B91 W/m2
22:39 58.6 °F 56.58 °F 29.49 in NE 1 mph 5 mph 93% 0 in WeatherCatV3.04B91 W/m2
22:44 58.6 °F 56.88 °F 29.48 in Calm     94% 0 in WeatherCatV3.04B91 W/m2
22:49 58.6 °F 56.88 °F 29.48 in ENE 1 mph 7 mph 94% 0 in WeatherCatV3.04B91 W/m2
22:54 58.4 °F 56.68 °F 29.48 in Calm     94% 0 in WeatherCatV3.04B91 W/m2
22:59 58.4 °F 56.68 °F 29.47 in Calm   3 mph 94% 0 in WeatherCatV3.04B91 W/m2
23:04 58.4 °F 56.97 °F 29.47 in NE 4 mph 4 mph 95% 0 in WeatherCatV3.04B91 W/m2
23:09 58.4 °F 56.97 °F 29.47 in Calm   3 mph 95% 0 in WeatherCatV3.04B91 W/m2
23:14 58.6 °F 57.17 °F 29.50 in Calm     95% 0 in WeatherCatV3.04B91 W/m2
23:19 58.6 °F 57.17 °F 29.50 in Calm     95% 0 in WeatherCatV3.04B91 W/m2
23:24 58.6 °F 57.17 °F 29.50 in Calm     95% 0 in WeatherCatV3.04B91 W/m2
23:29 58.6 °F 57.17 °F 29.51 in Calm     95% 0 in WeatherCatV3.04B91 W/m2
23:34 58.6 °F 57.17 °F 29.51 in Calm     95% 0 in WeatherCatV3.04B91 W/m2
23:39 58.6 °F 57.17 °F 29.51 in Calm     95% 0 in WeatherCatV3.04B91 W/m2
23:44 58.6 °F 57.46 °F 29.51 in Calm     96% 0 in WeatherCatV3.04B91 W/m2
23:49 58.6 °F 57.46 °F 29.51 in Calm     96% 0 in WeatherCatV3.04B91 W/m2
23:54 58.6 °F 57.46 °F 29.51 in Calm     96% 0 in WeatherCatV3.04B91 W/m2
23:59 58.6 °F 57.46 °F 29.51 in Calm   2 mph 96% 0 in WeatherCatV3.04B91 W/m2
Bellevue, Nebraska, USA
Compliments of Weather Underground - 3.25 mb